sensor_id;sensor_type;location;lat;lon;timestamp;pressure;altitude;pressure_sealevel;temperature;humidity
50550;BME280;36505;52.512;13.460;2022-08-11T00:02:35;101909.84;;;19.97;45.80
50550;BME280;36505;52.512;13.460;2022-08-11T00:05:11;101911.22;;;19.95;46.09
50550;BME280;36505;52.512;13.460;2022-08-11T00:07:49;101905.38;;;19.91;46.06
50550;BME280;36505;52.512;13.460;2022-08-11T00:10:18;101907.59;;;19.89;46.37
50550;BME280;36505;52.512;13.460;2022-08-11T00:13:08;101911.22;;;19.85;46.14
50550;BME280;36505;52.512;13.460;2022-08-11T00:15:42;101910.41;;;19.84;46.41
50550;BME280;36505;52.512;13.460;2022-08-11T00:18:09;101907.06;;;19.77;46.30
50550;BME280;36505;52.512;13.460;2022-08-11T00:20:37;101915.41;;;19.77;46.54
50550;BME280;36505;52.512;13.460;2022-08-11T00:23:22;101910.94;;;19.71;46.63
50550;BME280;36505;52.512;13.460;2022-08-11T00:25:49;101910.13;;;19.70;46.83
50550;BME280;36505;52.512;13.460;2022-08-11T00:28:32;101899.25;;;19.59;46.87
50550;BME280;36505;52.512;13.460;2022-08-11T00:31:03;101912.59;;;19.62;47.15
50550;BME280;36505;52.512;13.460;2022-08-11T00:33:48;101907.03;;;19.57;47.17
50550;BME280;36505;52.512;13.460;2022-08-11T00:36:17;101899.25;;;19.54;47.01
50550;BME280;36505;52.512;13.460;2022-08-11T00:38:44;101905.94;;;19.58;47.24
50550;BME280;36505;52.512;13.460;2022-08-11T00:41:14;101903.16;;;19.58;47.19
50550;BME280;36505;52.512;13.460;2022-08-11T00:43:50;101899.81;;;19.56;47.22
50550;BME280;36505;52.512;13.460;2022-08-11T00:49:10;101919.00;;;19.57;47.07
50550;BME280;36505;52.512;13.460;2022-08-11T00:54:30;101912.31;;;19.48;47.62
50550;BME280;36505;52.512;13.460;2022-08-11T01:00:33;101905.31;;;19.46;47.89
50550;BME280;36505;52.512;13.460;2022-08-11T01:03:37;101910.34;;;19.44;47.55
50550;BME280;36505;52.512;13.460;2022-08-11T01:46:14;101900.75;;;18.89;48.87
50550;BME280;36505;52.512;13.460;2022-08-11T01:48:59;101915.47;;;19.00;49.28
50550;BME280;36505;52.512;13.460;2022-08-11T01:55:31;101916.84;;;18.92;49.47
50550;BME280;36505;52.512;13.460;2022-08-11T01:57:37;101913.78;;;18.88;49.63
50550;BME280;36505;52.512;13.460;2022-08-11T02:00:11;101912.38;;;18.86;49.52
50550;BME280;36505;52.512;13.460;2022-08-11T02:02:51;101906.81;;;18.86;49.44
50550;BME280;36505;52.512;13.460;2022-08-11T02:05:49;101904.31;;;18.79;49.86
50550;BME280;36505;52.512;13.460;2022-08-11T02:11:23;101901.78;;;18.78;50.06
50550;BME280;36505;52.512;13.460;2022-08-11T02:14:11;101902.09;;;18.76;50.12
50550;BME280;36505;52.512;13.460;2022-08-11T02:23:02;101902.88;;;18.72;50.32
50550;BME280;36505;52.512;13.460;2022-08-11T02:31:02;101895.97;;;18.69;50.09
50550;BME280;36505;52.512;13.460;2022-08-11T02:33:59;101902.88;;;18.67;50.35
50550;BME280;36505;52.512;13.460;2022-08-11T02:36:39;101897.91;;;18.69;50.66
50550;BME280;36505;52.512;13.460;2022-08-11T02:39:10;101889.81;;;18.62;50.50
50550;BME280;36505;52.512;13.460;2022-08-11T02:42:04;101893.91;;;18.54;50.25
50550;BME280;36505;52.512;13.460;2022-08-11T02:50:22;101894.94;;;18.43;50.61
50550;BME280;36505;52.512;13.460;2022-08-11T02:53:24;101894.34;;;18.36;51.11
50550;BME280;36505;52.512;13.460;2022-08-11T02:56:00;101894.31;;;18.31;50.95
50550;BME280;36505;52.512;13.460;2022-08-11T02:58:37;101888.19;;;18.29;51.05
50550;BME280;36505;52.512;13.460;2022-08-11T03:01:20;101889.03;;;18.30;50.91
50550;BME280;36505;52.512;13.460;2022-08-11T03:04:06;101894.31;;;18.26;51.10
50550;BME280;36505;52.512;13.460;2022-08-11T03:06:44;101890.66;;;18.21;51.02
50550;BME280;36505;52.512;13.460;2022-08-11T03:09:24;101899.53;;;18.23;51.07
50550;BME280;36505;52.512;13.460;2022-08-11T03:12:05;101895.91;;;18.22;51.12
50550;BME280;36505;52.512;13.460;2022-08-11T03:15:00;101898.38;;;18.13;51.17
50550;BME280;36505;52.512;13.460;2022-08-11T03:28:29;101896.53;;;17.87;52.56
50550;BME280;36505;52.512;13.460;2022-08-11T03:33:29;101898.94;;;17.79;52.53
50550;BME280;36505;52.512;13.460;2022-08-11T03:41:44;101902.81;;;17.77;52.70
50550;BME280;36505;52.512;13.460;2022-08-11T03:55:03;101895.19;;;17.63;53.29
50550;BME280;36505;52.512;13.460;2022-08-11T04:31:09;101903.75;;;17.61;53.50
50550;BME280;36505;52.512;13.460;2022-08-11T04:34:33;101910.66;;;17.59;53.75
50550;BME280;36505;52.512;13.460;2022-08-11T04:37:14;101917.53;;;17.56;53.73
50550;BME280;36505;52.512;13.460;2022-08-11T04:43:14;101905.13;;;17.59;53.77
50550;BME280;36505;52.512;13.460;2022-08-11T04:59:19;101920.91;;;17.90;53.16
50550;BME280;36505;52.512;13.460;2022-08-11T05:02:17;101922.00;;;17.89;53.30
50550;BME280;36505;52.512;13.460;2022-08-11T05:11:06;101914.66;;;18.05;52.89
50550;BME280;36505;52.512;13.460;2022-08-11T05:13:43;101908.50;;;17.98;52.86
50550;BME280;36505;52.512;13.460;2022-08-11T05:16:31;101911.88;;;18.00;52.70
50550;BME280;36505;52.512;13.460;2022-08-11T05:19:20;101916.09;;;18.12;52.87
50550;BME280;36505;52.512;13.460;2022-08-11T05:22:11;101922.75;;;18.11;52.97
50550;BME280;36505;52.512;13.460;2022-08-11T05:25:08;101923.00;;;18.10;52.89
50550;BME280;36505;52.512;13.460;2022-08-11T05:28:31;101923.06;;;18.15;52.83
50550;BME280;36505;52.512;13.460;2022-08-11T05:31:17;101916.72;;;18.20;52.52
50550;BME280;36505;52.512;13.460;2022-08-11T05:34:09;101932.03;;;18.32;52.59
50550;BME280;36505;52.512;13.460;2022-08-11T05:37:00;101922.06;;;18.36;52.17
50550;BME280;36505;52.512;13.460;2022-08-11T05:39:30;101931.00;;;18.43;52.18
50550;BME280;36505;52.512;13.460;2022-08-11T05:42:16;101928.22;;;18.43;52.40
50550;BME280;36505;52.512;13.460;2022-08-11T05:45:16;101925.25;;;18.55;52.28
50550;BME280;36505;52.512;13.460;2022-08-11T05:48:01;101936.16;;;18.67;51.73
50550;BME280;36505;52.512;13.460;2022-08-11T05:50:54;101934.22;;;18.62;51.41
50550;BME280;36505;52.512;13.460;2022-08-11T05:53:59;101932.81;;;18.65;51.76
50550;BME280;36505;52.512;13.460;2022-08-11T05:56:49;101935.06;;;18.68;51.69
50550;BME280;36505;52.512;13.460;2022-08-11T05:59:18;101938.34;;;18.65;51.76
50550;BME280;36505;52.512;13.460;2022-08-11T06:01:45;101941.16;;;18.70;51.53
50550;BME280;36505;52.512;13.460;2022-08-11T06:04:22;101942.88;;;18.76;51.46
50550;BME280;36505;52.512;13.460;2022-08-11T06:11:53;101938.94;;;19.44;50.34
50550;BME280;36505;52.512;13.460;2022-08-11T06:14:21;101946.97;;;19.41;49.98
50550;BME280;36505;52.512;13.460;2022-08-11T06:16:48;101946.97;;;19.36;50.76
50550;BME280;36505;52.512;13.460;2022-08-11T06:19:16;101942.78;;;19.33;50.55
50550;BME280;36505;52.512;13.460;2022-08-11T06:21:46;101955.88;;;19.43;50.70
50550;BME280;36505;52.512;13.460;2022-08-11T06:24:15;101943.97;;;19.47;51.00
50550;BME280;36505;52.512;13.460;2022-08-11T06:26:46;101948.19;;;19.65;50.08
50550;BME280;36505;52.512;13.460;2022-08-11T06:29:12;101953.72;;;19.80;49.87
50550;BME280;36505;52.512;13.460;2022-08-11T06:32:04;101947.63;;;19.93;49.88
50550;BME280;36505;52.512;13.460;2022-08-11T06:34:38;101944.31;;;20.11;49.44
50550;BME280;36505;52.512;13.460;2022-08-11T06:37:15;101957.09;;;20.33;49.08
50550;BME280;36505;52.512;13.460;2022-08-11T06:39:50;101956.25;;;20.37;48.35
50550;BME280;36505;52.512;13.460;2022-08-11T06:42:31;101959.88;;;20.38;48.82
50550;BME280;36505;52.512;13.460;2022-08-11T06:47:55;101946.00;;;21.12;47.29
50550;BME280;36505;52.512;13.460;2022-08-11T06:50:25;101953.06;;;21.44;46.27
50550;BME280;36505;52.512;13.460;2022-08-11T06:53:10;101938.44;;;22.59;44.17
50550;BME280;36505;52.512;13.460;2022-08-11T06:55:41;101946.28;;;24.49;40.45
50550;BME280;36505;52.512;13.460;2022-08-11T06:58:39;101925.50;;;26.66;35.72
50550;BME280;36505;52.512;13.460;2022-08-11T07:04:39;101929.22;;;30.06;30.29
50550;BME280;36505;52.512;13.460;2022-08-11T07:13:20;101929.84;;;31.70;27.58
50550;BME280;36505;52.512;13.460;2022-08-11T07:16:06;101920.75;;;32.48;25.96
50550;BME280;36505;52.512;13.460;2022-08-11T07:18:34;101924.75;;;32.63;25.90
50550;BME280;36505;52.512;13.460;2022-08-11T07:21:30;101920.25;;;33.09;25.00
50550;BME280;36505;52.512;13.460;2022-08-11T07:24:20;101922.13;;;33.71;24.48
50550;BME280;36505;52.512;13.460;2022-08-11T07:27:10;101915.28;;;33.95;24.06
50550;BME280;36505;52.512;13.460;2022-08-11T07:30:00;101914.22;;;34.45;23.88
50550;BME280;36505;52.512;13.460;2022-08-11T07:32:34;101909.69;;;34.21;23.02
50550;BME280;36505;52.512;13.460;2022-08-11T07:35:07;101911.50;;;34.75;23.07
50550;BME280;36505;52.512;13.460;2022-08-11T07:37:34;101913.94;;;35.25;22.85
50550;BME280;36505;52.512;13.460;2022-08-11T07:40:01;101912.09;;;36.03;21.59
50550;BME280;36505;52.512;13.460;2022-08-11T07:42:30;101905.03;;;36.27;20.98
50550;BME280;36505;52.512;13.460;2022-08-11T07:45:02;101907.56;;;36.80;21.50
50550;BME280;36505;52.512;13.460;2022-08-11T07:47:47;101906.13;;;37.07;20.24
50550;BME280;36505;52.512;13.460;2022-08-11T07:50:32;101908.94;;;37.00;20.27
50550;BME280;36505;52.512;13.460;2022-08-11T07:53:17;101907.84;;;37.12;19.96
50550;BME280;36505;52.512;13.460;2022-08-11T07:55:43;101906.00;;;37.51;19.84
50550;BME280;36505;52.512;13.460;2022-08-11T07:58:09;101900.41;;;37.83;19.81
50550;BME280;36505;52.512;13.460;2022-08-11T08:00:55;101903.81;;;38.21;18.56
50550;BME280;36505;52.512;13.460;2022-08-11T08:03:41;101907.53;;;38.64;18.33
50550;BME280;36505;52.512;13.460;2022-08-11T08:06:26;101908.38;;;38.96;18.15
50550;BME280;36505;52.512;13.460;2022-08-11T08:09:11;101913.25;;;38.71;18.13
50550;BME280;36505;52.512;13.460;2022-08-11T08:11:59;101907.47;;;39.28;17.58
50550;BME280;36505;52.512;13.460;2022-08-11T08:14:43;101908.34;;;39.00;17.40
50550;BME280;36505;52.512;13.460;2022-08-11T08:17:29;101908.75;;;39.09;17.51
50550;BME280;36505;52.512;13.460;2022-08-11T08:20:20;101907.91;;;39.23;17.45
50550;BME280;36505;52.512;13.460;2022-08-11T08:22:51;101912.81;;;39.22;17.42
50550;BME280;36505;52.512;13.460;2022-08-11T08:25:22;101915.69;;;38.97;17.41
50550;BME280;36505;52.512;13.460;2022-08-11T08:27:50;101903.41;;;39.11;17.27
50550;BME280;36505;52.512;13.460;2022-08-11T08:30:16;101904.59;;;39.28;17.96
50550;BME280;36505;52.512;13.460;2022-08-11T08:33:01;101907.25;;;39.92;16.68
50550;BME280;36505;52.512;13.460;2022-08-11T08:35:27;101906.84;;;39.86;16.84
50550;BME280;36505;52.512;13.460;2022-08-11T08:37:55;101902.53;;;39.42;16.52
50550;BME280;36505;52.512;13.460;2022-08-11T08:40:21;101897.25;;;39.23;17.50
50550;BME280;36505;52.512;13.460;2022-08-11T08:42:51;101897.66;;;39.18;16.93
50550;BME280;36505;52.512;13.460;2022-08-11T08:45:20;101903.03;;;38.52;17.38
50550;BME280;36505;52.512;13.460;2022-08-11T08:47:59;101905.06;;;38.69;17.43
50550;BME280;36505;52.512;13.460;2022-08-11T08:50:29;101898.84;;;39.38;17.63
50550;BME280;36505;52.512;13.460;2022-08-11T08:53:18;101886.56;;;39.41;16.55
50550;BME280;36505;52.512;13.460;2022-08-11T08:55:45;101895.81;;;39.84;16.59
50550;BME280;36505;52.512;13.460;2022-08-11T08:58:11;101891.31;;;39.76;16.28
50550;BME280;36505;52.512;13.460;2022-08-11T09:00:43;101884.53;;;39.28;16.99
50550;BME280;36505;52.512;13.460;2022-08-11T09:03:09;101879.78;;;39.91;16.88
50550;BME280;36505;52.512;13.460;2022-08-11T09:05:36;101882.47;;;40.19;16.84
50550;BME280;36505;52.512;13.460;2022-08-11T09:08:02;101882.53;;;40.08;16.54
50550;BME280;36505;52.512;13.460;2022-08-11T09:10:28;101877.06;;;39.59;17.09
50550;BME280;36505;52.512;13.460;2022-08-11T09:12:55;101871.19;;;39.87;16.95
50550;BME280;36505;52.512;13.460;2022-08-11T09:15:22;101883.13;;;39.82;16.82
50550;BME280;36505;52.512;13.460;2022-08-11T09:17:50;101882.53;;;39.14;17.01
50550;BME280;36505;52.512;13.460;2022-08-11T09:20:22;101875.63;;;39.01;17.45
50550;BME280;36505;52.512;13.460;2022-08-11T09:22:50;101879.69;;;39.03;18.03
50550;BME280;36505;52.512;13.460;2022-08-11T09:25:35;101881.38;;;38.55;17.27
50550;BME280;36505;52.512;13.460;2022-08-11T09:28:20;101875.19;;;38.24;17.75
50550;BME280;36505;52.512;13.460;2022-08-11T09:30:51;101878.06;;;38.21;17.85
50550;BME280;36505;52.512;13.460;2022-08-11T09:33:21;101867.75;;;37.84;18.21
50550;BME280;36505;52.512;13.460;2022-08-11T09:35:49;101868.59;;;38.03;18.18
50550;BME280;36505;52.512;13.460;2022-08-11T09:38:17;101865.56;;;37.46;17.99
50550;BME280;36505;52.512;13.460;2022-08-11T09:41:03;101874.13;;;36.77;17.94
50550;BME280;36505;52.512;13.460;2022-08-11T09:43:30;101866.59;;;36.58;19.11
50550;BME280;36505;52.512;13.460;2022-08-11T09:46:15;101865.00;;;35.80;18.90
50550;BME280;36505;52.512;13.460;2022-08-11T09:48:46;101882.88;;;34.91;19.85
50550;BME280;36505;52.512;13.460;2022-08-11T09:51:13;101861.47;;;34.05;20.72
50550;BME280;36505;52.512;13.460;2022-08-11T09:53:40;101861.22;;;33.91;21.16
50550;BME280;36505;52.512;13.460;2022-08-11T09:56:12;101853.22;;;33.58;21.97
50550;BME280;36505;52.512;13.460;2022-08-11T09:58:58;101850.16;;;33.86;21.86
50550;BME280;36505;52.512;13.460;2022-08-11T10:01:28;101854.13;;;33.82;21.75
50550;BME280;36505;52.512;13.460;2022-08-11T10:04:02;101845.94;;;33.77;21.85
50550;BME280;36505;52.512;13.460;2022-08-11T10:06:29;101843.00;;;33.73;21.97
50550;BME280;36505;52.512;13.460;2022-08-11T10:09:19;101840.84;;;33.12;22.01
50550;BME280;36505;52.512;13.460;2022-08-11T10:11:46;101837.47;;;32.87;22.74
50550;BME280;36505;52.512;13.460;2022-08-11T10:14:13;101840.97;;;32.81;23.11
50550;BME280;36505;52.512;13.460;2022-08-11T10:17:02;101834.47;;;32.49;22.51
50550;BME280;36505;52.512;13.460;2022-08-11T10:19:30;101832.75;;;32.13;23.58
50550;BME280;36505;52.512;13.460;2022-08-11T10:21:57;101836.88;;;31.72;23.66
50550;BME280;36505;52.512;13.460;2022-08-11T10:28:06;101831.56;;;31.43;24.71
50550;BME280;36505;52.512;13.460;2022-08-11T10:30:32;101822.28;;;31.30;23.22
50550;BME280;36505;52.512;13.460;2022-08-11T10:33:17;101825.31;;;30.97;24.15
50550;BME280;36505;52.512;13.460;2022-08-11T10:36:03;101837.91;;;30.39;25.19
50550;BME280;36505;52.512;13.460;2022-08-11T10:38:30;101820.03;;;30.35;24.90
50550;BME280;36505;52.512;13.460;2022-08-11T10:40:56;101828.28;;;30.40;24.84
50550;BME280;36505;52.512;13.460;2022-08-11T10:43:42;101815.22;;;30.35;24.95
50550;BME280;36505;52.512;13.460;2022-08-11T10:46:09;101815.44;;;30.42;25.02
50550;BME280;36505;52.512;13.460;2022-08-11T10:48:55;101804.03;;;30.63;24.78
50550;BME280;36505;52.512;13.460;2022-08-11T10:51:23;101803.06;;;30.83;25.07
50550;BME280;36505;52.512;13.460;2022-08-11T10:54:08;101798.81;;;30.89;25.62
50550;BME280;36505;52.512;13.460;2022-08-11T10:56:53;101802.56;;;31.06;25.34
50550;BME280;36505;52.512;13.460;2022-08-11T10:59:38;101787.78;;;31.12;25.62
50550;BME280;36505;52.512;13.460;2022-08-11T11:02:08;101795.94;;;31.14;24.17
50550;BME280;36505;52.512;13.460;2022-08-11T11:07:42;101796.53;;;29.85;25.21
50550;BME280;36505;52.512;13.460;2022-08-11T11:10:11;101799.69;;;29.84;25.96
50550;BME280;36505;52.512;13.460;2022-08-11T11:12:45;101790.09;;;29.97;25.02
50550;BME280;36505;52.512;13.460;2022-08-11T11:15:31;101794.22;;;30.12;24.71
50550;BME280;36505;52.512;13.460;2022-08-11T11:18:24;101788.13;;;30.22;25.31
50550;BME280;36505;52.512;13.460;2022-08-11T11:23:31;101788.00;;;30.06;24.70
50550;BME280;36505;52.512;13.460;2022-08-11T11:38:54;101760.88;;;28.94;25.79
50550;BME280;36505;52.512;13.460;2022-08-11T11:41:21;101771.19;;;28.90;25.92
50550;BME280;36505;52.512;13.460;2022-08-11T11:43:54;101768.16;;;28.75;26.79
50550;BME280;36505;52.512;13.460;2022-08-11T11:46:23;101763.09;;;28.59;26.74
50550;BME280;36505;52.512;13.460;2022-08-11T11:48:49;101755.63;;;28.63;26.72
50550;BME280;36505;52.512;13.460;2022-08-11T11:51:15;101757.41;;;28.68;27.10
50550;BME280;36505;52.512;13.460;2022-08-11T11:53:42;101760.13;;;28.85;27.32
50550;BME280;36505;52.512;13.460;2022-08-11T11:56:10;101751.75;;;28.97;26.67
50550;BME280;36505;52.512;13.460;2022-08-11T11:58:37;101754.91;;;28.96;26.02
50550;BME280;36505;52.512;13.460;2022-08-11T12:01:23;101747.75;;;28.78;25.98
50550;BME280;36505;52.512;13.460;2022-08-11T12:03:51;101743.03;;;28.61;25.91
50550;BME280;36505;52.512;13.460;2022-08-11T12:06:20;101747.38;;;28.58;26.51
50550;BME280;36505;52.512;13.460;2022-08-11T12:08:48;101742.63;;;28.50;26.14
50550;BME280;36505;52.512;13.460;2022-08-11T12:11:14;101748.09;;;28.47;24.89
50550;BME280;36505;52.512;13.460;2022-08-11T12:14:02;101738.00;;;28.46;25.89
50550;BME280;36505;52.512;13.460;2022-08-11T12:16:29;101737.88;;;28.42;25.05
50550;BME280;36505;52.512;13.460;2022-08-11T12:18:58;101737.72;;;28.39;25.42
50550;BME280;36505;52.512;13.460;2022-08-11T12:21:29;101731.66;;;28.28;24.95
50550;BME280;36505;52.512;13.460;2022-08-11T12:23:56;101726.72;;;28.25;25.44
50550;BME280;36505;52.512;13.460;2022-08-11T12:26:41;101724.78;;;28.17;25.63
50550;BME280;36505;52.512;13.460;2022-08-11T12:29:15;101729.25;;;28.09;26.09
50550;BME280;36505;52.512;13.460;2022-08-11T12:31:41;101721.53;;;27.98;26.13
50550;BME280;36505;52.512;13.460;2022-08-11T12:34:14;101715.41;;;27.96;26.11
50550;BME280;36505;52.512;13.460;2022-08-11T12:37:00;101723.31;;;28.02;27.62
50550;BME280;36505;52.512;13.460;2022-08-11T12:39:34;101729.63;;;27.99;25.98
50550;BME280;36505;52.512;13.460;2022-08-11T12:42:20;101717.09;;;27.88;25.66
50550;BME280;36505;52.512;13.460;2022-08-11T12:45:10;101715.13;;;27.80;25.73
50550;BME280;36505;52.512;13.460;2022-08-11T12:47:53;101701.78;;;27.68;26.24
50550;BME280;36505;52.512;13.460;2022-08-11T12:50:42;101697.75;;;27.78;26.87
50550;BME280;36505;52.512;13.460;2022-08-11T12:53:30;101698.06;;;27.85;27.22
50550;BME280;36505;52.512;13.460;2022-08-11T12:56:02;101697.53;;;27.91;27.48
50550;BME280;36505;52.512;13.460;2022-08-11T12:58:48;101692.25;;;27.90;27.10
50550;BME280;36505;52.512;13.460;2022-08-11T13:01:15;101669.69;;;27.69;26.91
50550;BME280;36505;52.512;13.460;2022-08-11T13:04:00;101673.94;;;27.75;26.69
50550;BME280;36505;52.512;13.460;2022-08-11T13:06:44;101678.41;;;27.76;26.83
50550;BME280;36505;52.512;13.460;2022-08-11T13:09:11;101668.44;;;27.79;27.41
50550;BME280;36505;52.512;13.460;2022-08-11T13:11:38;101670.63;;;27.73;26.40
50550;BME280;36505;52.512;13.460;2022-08-11T13:14:24;101673.13;;;27.75;26.56
50550;BME280;36505;52.512;13.460;2022-08-11T13:16:51;101670.81;;;27.77;26.33
50550;BME280;36505;52.512;13.460;2022-08-11T13:19:36;101670.09;;;27.80;27.06
50550;BME280;36505;52.512;13.460;2022-08-11T13:22:02;101660.34;;;27.77;26.54
50550;BME280;36505;52.512;13.460;2022-08-11T13:24:30;101667.50;;;27.75;26.23
50550;BME280;36505;52.512;13.460;2022-08-11T13:26:58;101668.03;;;27.68;26.41
50550;BME280;36505;52.512;13.460;2022-08-11T13:29:25;101674.47;;;27.69;26.55
50550;BME280;36505;52.512;13.460;2022-08-11T13:31:54;101669.69;;;27.69;26.52
50550;BME280;36505;52.512;13.460;2022-08-11T13:34:23;101661.41;;;27.64;25.89
50550;BME280;36505;52.512;13.460;2022-08-11T13:36:51;101658.13;;;27.62;25.74
50550;BME280;36505;52.512;13.460;2022-08-11T13:39:17;101660.25;;;27.65;26.54
50550;BME280;36505;52.512;13.460;2022-08-11T13:41:44;101664.72;;;27.66;25.66
50550;BME280;36505;52.512;13.460;2022-08-11T13:44:14;101657.72;;;27.72;24.80
50550;BME280;36505;52.512;13.460;2022-08-11T13:46:40;101646.50;;;27.64;24.99
50550;BME280;36505;52.512;13.460;2022-08-11T13:49:07;101649.84;;;27.57;24.79
50550;BME280;36505;52.512;13.460;2022-08-11T13:51:36;101648.34;;;27.60;25.21
50550;BME280;36505;52.512;13.460;2022-08-11T13:54:11;101647.16;;;27.69;25.35
50550;BME280;36505;52.512;13.460;2022-08-11T13:56:43;101643.31;;;27.74;24.85
50550;BME280;36505;52.512;13.460;2022-08-11T13:59:09;101633.72;;;27.75;24.80
50550;BME280;36505;52.512;13.460;2022-08-11T14:01:40;101645.69;;;27.92;24.06
50550;BME280;36505;52.512;13.460;2022-08-11T14:04:11;101630.16;;;27.86;23.49
50550;BME280;36505;52.512;13.460;2022-08-11T14:06:42;101634.69;;;27.79;24.13
50550;BME280;36505;52.512;13.460;2022-08-11T14:09:09;101637.16;;;27.80;24.09
50550;BME280;36505;52.512;13.460;2022-08-11T14:11:37;101634.84;;;27.82;24.43
50550;BME280;36505;52.512;13.460;2022-08-11T14:14:25;101633.16;;;27.90;24.29
50550;BME280;36505;52.512;13.460;2022-08-11T14:16:55;101631.50;;;27.89;24.05
50550;BME280;36505;52.512;13.460;2022-08-11T14:19:23;101629.97;;;27.91;23.75
50550;BME280;36505;52.512;13.460;2022-08-11T14:21:50;101624.34;;;27.91;23.78
50550;BME280;36505;52.512;13.460;2022-08-11T14:24:33;101632.44;;;27.93;24.39
50550;BME280;36505;52.512;13.460;2022-08-11T14:26:59;101619.19;;;27.94;24.40
50550;BME280;36505;52.512;13.460;2022-08-11T14:29:26;101613.25;;;27.95;24.20
50550;BME280;36505;52.512;13.460;2022-08-11T14:31:54;101624.78;;;28.02;24.00
50550;BME280;36505;52.512;13.460;2022-08-11T14:34:25;101622.09;;;28.06;23.54
50550;BME280;36505;52.512;13.460;2022-08-11T14:36:53;101612.00;;;28.05;23.70
50550;BME280;36505;52.512;13.460;2022-08-11T14:39:27;101624.91;;;28.06;23.70
50550;BME280;36505;52.512;13.460;2022-08-11T14:41:55;101609.69;;;28.07;23.67
50550;BME280;36505;52.512;13.460;2022-08-11T14:44:43;101607.06;;;28.02;23.81
50550;BME280;36505;52.512;13.460;2022-08-11T14:47:35;101613.31;;;28.07;24.00
50550;BME280;36505;52.512;13.460;2022-08-11T14:50:02;101609.69;;;28.07;23.37
50550;BME280;36505;52.512;13.460;2022-08-11T14:52:32;101611.66;;;28.06;23.59
50550;BME280;36505;52.512;13.460;2022-08-11T14:55:00;101608.03;;;28.06;23.33
50550;BME280;36505;52.512;13.460;2022-08-11T14:57:45;101608.72;;;28.03;23.24
50550;BME280;36505;52.512;13.460;2022-08-11T15:00:14;101617.28;;;28.06;22.84
50550;BME280;36505;52.512;13.460;2022-08-11T15:02:41;101604.25;;;28.02;23.15
50550;BME280;36505;52.512;13.460;2022-08-11T15:05:26;101605.63;;;27.96;23.47
50550;BME280;36505;52.512;13.460;2022-08-11T15:07:53;101596.69;;;27.94;22.81
50550;BME280;36505;52.512;13.460;2022-08-11T15:10:20;101597.00;;;27.92;23.04
50550;BME280;36505;52.512;13.460;2022-08-11T15:12:47;101589.91;;;27.95;23.19
50550;BME280;36505;52.512;13.460;2022-08-11T15:15:13;101583.78;;;27.92;23.09
50550;BME280;36505;52.512;13.460;2022-08-11T15:18:01;101591.88;;;27.94;22.63
50550;BME280;36505;52.512;13.460;2022-08-11T15:20:28;101585.63;;;27.88;23.14
50550;BME280;36505;52.512;13.460;2022-08-11T15:23:12;101590.16;;;27.81;22.03
50550;BME280;36505;52.512;13.460;2022-08-11T15:26:31;101589.94;;;27.86;22.71
50550;BME280;36505;52.512;13.460;2022-08-11T15:29:19;101581.03;;;27.84;22.33
50550;BME280;36505;52.512;13.460;2022-08-11T15:32:05;101578.56;;;27.82;22.17
50550;BME280;36505;52.512;13.460;2022-08-11T15:34:57;101577.72;;;27.82;22.12
50550;BME280;36505;52.512;13.460;2022-08-11T15:37:45;101580.53;;;27.82;22.61
50550;BME280;36505;52.512;13.460;2022-08-11T15:40:43;101578.69;;;27.86;22.36
50550;BME280;36505;52.512;13.460;2022-08-11T15:43:33;101579.22;;;27.79;22.21
50550;BME280;36505;52.512;13.460;2022-08-11T15:46:28;101576.06;;;27.81;22.11
50550;BME280;36505;52.512;13.460;2022-08-11T15:49:01;101576.91;;;27.81;22.15
50550;BME280;36505;52.512;13.460;2022-08-11T15:51:39;101567.22;;;27.70;22.26
50550;BME280;36505;52.512;13.460;2022-08-11T15:54:09;101574.84;;;27.70;21.89
50550;BME280;36505;52.512;13.460;2022-08-11T15:56:39;101569.88;;;27.67;21.82
50550;BME280;36505;52.512;13.460;2022-08-11T15:59:07;101568.22;;;27.66;21.29
50550;BME280;36505;52.512;13.460;2022-08-11T16:01:54;101566.72;;;27.68;21.87
50550;BME280;36505;52.512;13.460;2022-08-11T16:04:40;101562.09;;;27.64;20.71
50550;BME280;36505;52.512;13.460;2022-08-11T16:07:33;101563.13;;;27.59;20.37
50550;BME280;36505;52.512;13.460;2022-08-11T16:10:07;101558.50;;;27.63;21.08
50550;BME280;36505;52.512;13.460;2022-08-11T16:12:59;101562.47;;;27.62;21.48
50550;BME280;36505;52.512;13.460;2022-08-11T16:15:28;101559.66;;;27.62;21.89
50550;BME280;36505;52.512;13.460;2022-08-11T16:18:15;101556.47;;;27.64;21.87
50550;BME280;36505;52.512;13.460;2022-08-11T16:20:44;101555.00;;;27.58;21.37
50550;BME280;36505;52.512;13.460;2022-08-11T16:23:12;101553.72;;;27.55;21.42
50550;BME280;36505;52.512;13.460;2022-08-11T16:25:40;101552.91;;;27.55;21.98
50550;BME280;36505;52.512;13.460;2022-08-11T16:28:08;101553.22;;;27.53;21.52
50550;BME280;36505;52.512;13.460;2022-08-11T16:30:38;101549.88;;;27.51;21.62
50550;BME280;36505;52.512;13.460;2022-08-11T16:33:05;101548.59;;;27.48;21.55
50550;BME280;36505;52.512;13.460;2022-08-11T16:35:34;101551.41;;;27.48;22.40
50550;BME280;36505;52.512;13.460;2022-08-11T16:38:20;101559.03;;;27.48;21.47
50550;BME280;36505;52.512;13.460;2022-08-11T16:41:02;101561.84;;;27.48;21.41
50550;BME280;36505;52.512;13.460;2022-08-11T16:43:29;101562.38;;;27.41;21.41
50550;BME280;36505;52.512;13.460;2022-08-11T16:46:16;101551.16;;;27.33;21.58
50550;BME280;36505;52.512;13.460;2022-08-11T16:49:03;101558.09;;;27.35;21.78